sim
Sign-in with your pilot id or email,
or register
Callsign
Passwort

Schedule Details

Flight Number: EWG1787 (1)
Departure: Palma de Mallorca Airport (LEPA) at 18:50
Arrival: Munich Airport (EDDM) at 21:00
Route: Eurowings Passenger Schedule. Enter filed route here before submitting Pirep.

Weather Information
Getting current METAR information for LEPA 251000Z 33022G34KT 300V360 9999 FEW020 22/10 Q1014 NOSIG
Getting current METAR information for EDDM 251020Z 26005KT 9999 -RA FEW012 SCT020 BKN040 10/08 Q1002 NOSIG

Schedule Frequency

Route Map